sensor_id;sensor_type;location;lat;lon;timestamp;P1;durP1;ratioP1;P2;durP2;ratioP2
76403;SDS011;65232;48.358;2.122;2024-01-06T00:00:22;14.57;;;9.68;;
76403;SDS011;65232;48.358;2.122;2024-01-06T00:00:48;17.30;;;10.23;;
76403;SDS011;65232;48.358;2.122;2024-01-06T00:01:14;17.60;;;10.57;;
76403;SDS011;65232;48.358;2.122;2024-01-06T00:01:42;16.33;;;10.23;;
76403;SDS011;65232;48.358;2.122;2024-01-06T00:02:07;16.88;;;9.40;;
76403;SDS011;65232;48.358;2.122;2024-01-06T00:02:33;17.30;;;9.98;;
76403;SDS011;65232;48.358;2.122;2024-01-06T00:02:58;16.25;;;9.43;;
76403;SDS011;65232;48.358;2.122;2024-01-06T00:03:24;12.63;;;8.65;;
76403;SDS011;65232;48.358;2.122;2024-01-06T00:03:49;17.10;;;9.50;;
76403;SDS011;65232;48.358;2.122;2024-01-06T00:04:14;17.00;;;10.38;;
76403;SDS011;65232;48.358;2.122;2024-01-06T00:04:40;18.00;;;9.50;;
76403;SDS011;65232;48.358;2.122;2024-01-06T00:05:05;17.52;;;9.88;;
76403;SDS011;65232;48.358;2.122;2024-01-06T00:05:31;19.10;;;10.60;;
76403;SDS011;65232;48.358;2.122;2024-01-06T00:05:56;18.27;;;10.02;;
76403;SDS011;65232;48.358;2.122;2024-01-06T00:06:21;16.75;;;10.57;;
76403;SDS011;65232;48.358;2.122;2024-01-06T00:06:47;16.88;;;10.13;;
76403;SDS011;65232;48.358;2.122;2024-01-06T00:07:12;18.80;;;10.60;;
76403;SDS011;65232;48.358;2.122;2024-01-06T00:07:38;20.13;;;11.95;;
76403;SDS011;65232;48.358;2.122;2024-01-06T00:08:04;17.58;;;10.35;;
76403;SDS011;65232;48.358;2.122;2024-01-06T00:08:30;17.15;;;9.95;;
76403;SDS011;65232;48.358;2.122;2024-01-06T00:08:55;16.92;;;10.88;;
76403;SDS011;65232;48.358;2.122;2024-01-06T00:09:21;17.88;;;10.18;;
76403;SDS011;65232;48.358;2.122;2024-01-06T00:09:46;16.70;;;10.25;;
76403;SDS011;65232;48.358;2.122;2024-01-06T00:10:12;18.30;;;10.43;;
76403;SDS011;65232;48.358;2.122;2024-01-06T00:10:37;17.35;;;8.98;;
76403;SDS011;65232;48.358;2.122;2024-01-06T00:11:02;14.93;;;9.05;;
76403;SDS011;65232;48.358;2.122;2024-01-06T00:11:28;16.13;;;10.02;;
76403;SDS011;65232;48.358;2.122;2024-01-06T00:11:54;19.63;;;9.48;;
76403;SDS011;65232;48.358;2.122;2024-01-06T00:12:19;16.20;;;9.45;;
76403;SDS011;65232;48.358;2.122;2024-01-06T00:12:44;17.17;;;9.65;;
76403;SDS011;65232;48.358;2.122;2024-01-06T00:13:10;16.85;;;9.52;;
76403;SDS011;65232;48.358;2.122;2024-01-06T00:13:35;14.13;;;8.90;;
76403;SDS011;65232;48.358;2.122;2024-01-06T00:14:01;17.25;;;9.30;;
76403;SDS011;65232;48.358;2.122;2024-01-06T00:14:26;15.77;;;9.35;;
76403;SDS011;65232;48.358;2.122;2024-01-06T00:14:52;18.92;;;9.00;;
76403;SDS011;65232;48.358;2.122;2024-01-06T00:15:17;16.38;;;8.50;;
76403;SDS011;65232;48.358;2.122;2024-01-06T00:15:42;15.55;;;8.55;;
76403;SDS011;65232;48.358;2.122;2024-01-06T00:16:08;17.60;;;8.90;;
76403;SDS011;65232;48.358;2.122;2024-01-06T00:16:33;18.33;;;8.80;;
76403;SDS011;65232;48.358;2.122;2024-01-06T00:16:58;16.02;;;8.45;;
76403;SDS011;65232;48.358;2.122;2024-01-06T00:17:24;17.20;;;9.45;;
76403;SDS011;65232;48.358;2.122;2024-01-06T00:17:49;16.38;;;8.80;;
76403;SDS011;65232;48.358;2.122;2024-01-06T00:18:14;15.02;;;9.68;;
76403;SDS011;65232;48.358;2.122;2024-01-06T00:18:40;15.80;;;9.80;;
76403;SDS011;65232;48.358;2.122;2024-01-06T00:19:05;14.13;;;8.75;;
76403;SDS011;65232;48.358;2.122;2024-01-06T00:19:31;18.58;;;9.38;;
76403;SDS011;65232;48.358;2.122;2024-01-06T00:19:56;17.33;;;9.07;;
76403;SDS011;65232;48.358;2.122;2024-01-06T00:20:21;20.63;;;10.05;;
76403;SDS011;65232;48.358;2.122;2024-01-06T00:20:47;17.20;;;9.73;;
76403;SDS011;65232;48.358;2.122;2024-01-06T00:21:12;19.27;;;9.93;;
76403;SDS011;65232;48.358;2.122;2024-01-06T00:21:38;17.90;;;10.10;;
76403;SDS011;65232;48.358;2.122;2024-01-06T00:22:03;19.67;;;9.98;;
76403;SDS011;65232;48.358;2.122;2024-01-06T00:22:29;18.17;;;10.02;;
76403;SDS011;65232;48.358;2.122;2024-01-06T00:22:54;18.27;;;9.48;;
76403;SDS011;65232;48.358;2.122;2024-01-06T00:23:21;17.95;;;9.95;;
76403;SDS011;65232;48.358;2.122;2024-01-06T00:23:47;17.67;;;9.88;;
76403;SDS011;65232;48.358;2.122;2024-01-06T00:24:12;17.67;;;10.23;;
76403;SDS011;65232;48.358;2.122;2024-01-06T00:24:37;18.15;;;11.00;;
76403;SDS011;65232;48.358;2.122;2024-01-06T00:25:03;21.02;;;9.95;;
76403;SDS011;65232;48.358;2.122;2024-01-06T00:25:28;19.45;;;10.35;;
76403;SDS011;65232;48.358;2.122;2024-01-06T00:25:54;18.58;;;9.50;;
76403;SDS011;65232;48.358;2.122;2024-01-06T00:26:19;15.90;;;9.75;;
76403;SDS011;65232;48.358;2.122;2024-01-06T00:26:44;17.65;;;10.00;;
76403;SDS011;65232;48.358;2.122;2024-01-06T00:27:10;19.23;;;10.70;;
76403;SDS011;65232;48.358;2.122;2024-01-06T00:27:35;19.23;;;9.82;;
76403;SDS011;65232;48.358;2.122;2024-01-06T00:28:01;19.45;;;9.88;;
76403;SDS011;65232;48.358;2.122;2024-01-06T00:28:26;19.55;;;9.43;;
76403;SDS011;65232;48.358;2.122;2024-01-06T00:28:51;17.55;;;10.23;;
76403;SDS011;65232;48.358;2.122;2024-01-06T00:29:17;16.55;;;9.10;;
76403;SDS011;65232;48.358;2.122;2024-01-06T00:29:42;17.88;;;9.68;;
76403;SDS011;65232;48.358;2.122;2024-01-06T00:30:07;17.13;;;9.30;;
76403;SDS011;65232;48.358;2.122;2024-01-06T00:30:33;16.55;;;8.75;;
76403;SDS011;65232;48.358;2.122;2024-01-06T00:30:58;16.70;;;8.65;;
76403;SDS011;65232;48.358;2.122;2024-01-06T00:31:24;18.05;;;8.45;;
76403;SDS011;65232;48.358;2.122;2024-01-06T00:31:49;16.98;;;8.80;;
76403;SDS011;65232;48.358;2.122;2024-01-06T00:32:15;15.65;;;8.15;;
76403;SDS011;65232;48.358;2.122;2024-01-06T00:32:40;12.90;;;8.05;;
76403;SDS011;65232;48.358;2.122;2024-01-06T00:33:05;15.90;;;9.30;;
76403;SDS011;65232;48.358;2.122;2024-01-06T00:33:31;13.70;;;8.40;;
76403;SDS011;65232;48.358;2.122;2024-01-06T00:33:56;14.75;;;8.93;;
76403;SDS011;65232;48.358;2.122;2024-01-06T00:34:22;17.38;;;8.27;;
76403;SDS011;65232;48.358;2.122;2024-01-06T00:34:47;17.23;;;8.75;;
76403;SDS011;65232;48.358;2.122;2024-01-06T00:35:13;14.32;;;8.13;;
76403;SDS011;65232;48.358;2.122;2024-01-06T00:35:39;13.27;;;8.68;;
76403;SDS011;65232;48.358;2.122;2024-01-06T00:36:06;16.52;;;8.60;;
76403;SDS011;65232;48.358;2.122;2024-01-06T00:36:32;15.48;;;8.45;;
76403;SDS011;65232;48.358;2.122;2024-01-06T00:36:57;18.13;;;9.52;;
76403;SDS011;65232;48.358;2.122;2024-01-06T00:37:23;17.15;;;9.20;;
76403;SDS011;65232;48.358;2.122;2024-01-06T00:37:48;17.02;;;8.75;;
76403;SDS011;65232;48.358;2.122;2024-01-06T00:38:14;15.23;;;8.85;;
76403;SDS011;65232;48.358;2.122;2024-01-06T00:38:39;15.90;;;8.38;;
76403;SDS011;65232;48.358;2.122;2024-01-06T00:39:04;15.70;;;8.85;;
76403;SDS011;65232;48.358;2.122;2024-01-06T00:39:30;15.00;;;7.93;;
76403;SDS011;65232;48.358;2.122;2024-01-06T00:39:55;15.32;;;8.95;;
76403;SDS011;65232;48.358;2.122;2024-01-06T00:40:20;15.35;;;9.35;;
76403;SDS011;65232;48.358;2.122;2024-01-06T00:40:46;16.33;;;9.30;;
76403;SDS011;65232;48.358;2.122;2024-01-06T00:41:11;16.45;;;8.45;;
76403;SDS011;65232;48.358;2.122;2024-01-06T00:41:37;14.20;;;8.50;;
76403;SDS011;65232;48.358;2.122;2024-01-06T00:42:02;17.65;;;7.95;;
76403;SDS011;65232;48.358;2.122;2024-01-06T00:42:28;14.73;;;8.38;;
76403;SDS011;65232;48.358;2.122;2024-01-06T00:42:53;16.75;;;8.77;;
76403;SDS011;65232;48.358;2.122;2024-01-06T00:43:18;14.48;;;8.43;;
76403;SDS011;65232;48.358;2.122;2024-01-06T00:43:44;15.20;;;9.07;;
76403;SDS011;65232;48.358;2.122;2024-01-06T00:44:09;18.08;;;8.52;;
76403;SDS011;65232;48.358;2.122;2024-01-06T00:44:35;14.55;;;8.40;;
76403;SDS011;65232;48.358;2.122;2024-01-06T00:45:01;17.92;;;9.32;;
76403;SDS011;65232;48.358;2.122;2024-01-06T00:45:26;15.85;;;9.90;;
76403;SDS011;65232;48.358;2.122;2024-01-06T00:45:52;16.00;;;8.57;;
76403;SDS011;65232;48.358;2.122;2024-01-06T00:46:17;16.10;;;8.52;;
76403;SDS011;65232;48.358;2.122;2024-01-06T00:46:42;15.57;;;9.23;;
76403;SDS011;65232;48.358;2.122;2024-01-06T00:47:08;15.82;;;9.90;;
76403;SDS011;65232;48.358;2.122;2024-01-06T00:47:33;17.17;;;9.10;;
76403;SDS011;65232;48.358;2.122;2024-01-06T00:47:59;17.20;;;8.52;;
76403;SDS011;65232;48.358;2.122;2024-01-06T00:48:24;16.88;;;9.85;;
76403;SDS011;65232;48.358;2.122;2024-01-06T00:48:49;13.35;;;8.48;;
76403;SDS011;65232;48.358;2.122;2024-01-06T00:49:15;14.77;;;8.80;;
76403;SDS011;65232;48.358;2.122;2024-01-06T00:49:40;17.65;;;9.60;;
76403;SDS011;65232;48.358;2.122;2024-01-06T00:50:06;19.02;;;10.57;;
76403;SDS011;65232;48.358;2.122;2024-01-06T00:50:31;18.88;;;10.50;;
76403;SDS011;65232;48.358;2.122;2024-01-06T00:50:57;17.42;;;10.30;;
76403;SDS011;65232;48.358;2.122;2024-01-06T00:51:22;19.85;;;10.10;;
76403;SDS011;65232;48.358;2.122;2024-01-06T00:51:48;20.75;;;10.70;;
76403;SDS011;65232;48.358;2.122;2024-01-06T00:52:13;18.85;;;9.90;;
76403;SDS011;65232;48.358;2.122;2024-01-06T00:52:38;17.17;;;10.13;;
76403;SDS011;65232;48.358;2.122;2024-01-06T00:53:04;19.52;;;11.20;;
76403;SDS011;65232;48.358;2.122;2024-01-06T00:53:29;18.55;;;10.55;;
76403;SDS011;65232;48.358;2.122;2024-01-06T00:53:54;20.45;;;10.85;;
76403;SDS011;65232;48.358;2.122;2024-01-06T00:54:20;18.70;;;10.18;;
76403;SDS011;65232;48.358;2.122;2024-01-06T00:54:46;19.30;;;10.95;;
76403;SDS011;65232;48.358;2.122;2024-01-06T00:55:12;18.95;;;10.48;;
76403;SDS011;65232;48.358;2.122;2024-01-06T00:55:37;21.08;;;11.00;;
76403;SDS011;65232;48.358;2.122;2024-01-06T00:56:03;17.98;;;11.00;;
76403;SDS011;65232;48.358;2.122;2024-01-06T00:56:28;18.85;;;9.85;;
76403;SDS011;65232;48.358;2.122;2024-01-06T00:56:54;18.08;;;10.80;;
76403;SDS011;65232;48.358;2.122;2024-01-06T00:57:19;21.17;;;10.90;;
76403;SDS011;65232;48.358;2.122;2024-01-06T00:57:49;22.48;;;11.55;;
76403;SDS011;65232;48.358;2.122;2024-01-06T00:58:15;20.70;;;11.25;;
76403;SDS011;65232;48.358;2.122;2024-01-06T00:58:40;24.17;;;11.68;;
76403;SDS011;65232;48.358;2.122;2024-01-06T00:59:05;19.98;;;11.23;;
76403;SDS011;65232;48.358;2.122;2024-01-06T00:59:31;17.13;;;9.68;;
76403;SDS011;65232;48.358;2.122;2024-01-06T00:59:56;17.52;;;10.60;;
76403;SDS011;65232;48.358;2.122;2024-01-06T01:00:22;22.45;;;10.88;;
76403;SDS011;65232;48.358;2.122;2024-01-06T01:00:47;19.08;;;10.68;;
76403;SDS011;65232;48.358;2.122;2024-01-06T01:01:13;17.05;;;9.10;;
76403;SDS011;65232;48.358;2.122;2024-01-06T01:01:38;19.58;;;9.57;;
76403;SDS011;65232;48.358;2.122;2024-01-06T01:02:04;14.35;;;8.90;;
76403;SDS011;65232;48.358;2.122;2024-01-06T01:02:29;14.65;;;9.20;;
76403;SDS011;65232;48.358;2.122;2024-01-06T01:02:54;16.27;;;9.13;;
76403;SDS011;65232;48.358;2.122;2024-01-06T01:03:20;15.90;;;9.32;;
76403;SDS011;65232;48.358;2.122;2024-01-06T01:03:45;16.23;;;9.30;;
76403;SDS011;65232;48.358;2.122;2024-01-06T01:04:11;16.15;;;9.05;;
76403;SDS011;65232;48.358;2.122;2024-01-06T01:04:36;13.65;;;8.68;;
76403;SDS011;65232;48.358;2.122;2024-01-06T01:05:01;12.82;;;6.90;;
76403;SDS011;65232;48.358;2.122;2024-01-06T01:05:27;8.43;;;6.20;;
76403;SDS011;65232;48.358;2.122;2024-01-06T01:05:52;10.75;;;7.18;;
76403;SDS011;65232;48.358;2.122;2024-01-06T01:06:18;9.85;;;6.32;;
76403;SDS011;65232;48.358;2.122;2024-01-06T01:06:43;10.20;;;6.55;;
76403;SDS011;65232;48.358;2.122;2024-01-06T01:07:08;11.60;;;6.90;;
76403;SDS011;65232;48.358;2.122;2024-01-06T01:07:34;11.43;;;6.43;;
76403;SDS011;65232;48.358;2.122;2024-01-06T01:07:59;10.45;;;6.47;;
76403;SDS011;65232;48.358;2.122;2024-01-06T01:08:25;10.13;;;6.60;;
76403;SDS011;65232;48.358;2.122;2024-01-06T01:08:51;10.10;;;6.93;;
76403;SDS011;65232;48.358;2.122;2024-01-06T01:09:16;10.73;;;6.47;;
76403;SDS011;65232;48.358;2.122;2024-01-06T01:09:41;11.18;;;6.82;;
76403;SDS011;65232;48.358;2.122;2024-01-06T01:10:07;13.07;;;6.70;;
76403;SDS011;65232;48.358;2.122;2024-01-06T01:10:33;10.13;;;6.53;;
76403;SDS011;65232;48.358;2.122;2024-01-06T01:10:59;12.52;;;7.07;;
76403;SDS011;65232;48.358;2.122;2024-01-06T01:11:24;10.43;;;6.70;;
76403;SDS011;65232;48.358;2.122;2024-01-06T01:11:50;11.23;;;6.60;;
76403;SDS011;65232;48.358;2.122;2024-01-06T01:12:15;13.68;;;7.60;;
76403;SDS011;65232;48.358;2.122;2024-01-06T01:12:41;11.90;;;6.45;;
76403;SDS011;65232;48.358;2.122;2024-01-06T01:13:06;11.07;;;6.57;;
76403;SDS011;65232;48.358;2.122;2024-01-06T01:13:31;11.02;;;6.88;;
76403;SDS011;65232;48.358;2.122;2024-01-06T01:13:57;13.25;;;7.60;;
76403;SDS011;65232;48.358;2.122;2024-01-06T01:14:22;11.13;;;6.85;;
76403;SDS011;65232;48.358;2.122;2024-01-06T01:14:48;11.10;;;6.95;;
76403;SDS011;65232;48.358;2.122;2024-01-06T01:15:13;11.30;;;7.50;;
76403;SDS011;65232;48.358;2.122;2024-01-06T01:15:38;12.43;;;7.47;;
76403;SDS011;65232;48.358;2.122;2024-01-06T01:16:04;11.90;;;7.65;;
76403;SDS011;65232;48.358;2.122;2024-01-06T01:16:29;11.43;;;7.07;;
76403;SDS011;65232;48.358;2.122;2024-01-06T01:16:57;14.00;;;8.32;;
76403;SDS011;65232;48.358;2.122;2024-01-06T01:17:22;12.15;;;7.60;;
76403;SDS011;65232;48.358;2.122;2024-01-06T01:17:48;11.90;;;7.55;;
76403;SDS011;65232;48.358;2.122;2024-01-06T01:18:13;10.15;;;7.60;;
76403;SDS011;65232;48.358;2.122;2024-01-06T01:18:39;11.43;;;7.78;;
76403;SDS011;65232;48.358;2.122;2024-01-06T01:19:04;10.70;;;7.30;;
76403;SDS011;65232;48.358;2.122;2024-01-06T01:19:30;11.73;;;7.50;;
76403;SDS011;65232;48.358;2.122;2024-01-06T01:19:55;12.43;;;7.53;;
76403;SDS011;65232;48.358;2.122;2024-01-06T01:20:20;10.75;;;7.32;;
76403;SDS011;65232;48.358;2.122;2024-01-06T01:20:46;12.75;;;7.10;;
76403;SDS011;65232;48.358;2.122;2024-01-06T01:21:11;10.80;;;7.80;;
76403;SDS011;65232;48.358;2.122;2024-01-06T01:21:37;12.13;;;9.10;;
76403;SDS011;65232;48.358;2.122;2024-01-06T01:22:02;12.32;;;8.07;;
76403;SDS011;65232;48.358;2.122;2024-01-06T01:22:28;13.75;;;8.80;;
76403;SDS011;65232;48.358;2.122;2024-01-06T01:22:53;11.35;;;8.43;;
76403;SDS011;65232;48.358;2.122;2024-01-06T01:23:18;13.63;;;8.00;;
76403;SDS011;65232;48.358;2.122;2024-01-06T01:23:44;11.55;;;8.25;;
76403;SDS011;65232;48.358;2.122;2024-01-06T01:24:09;12.68;;;7.70;;
76403;SDS011;65232;48.358;2.122;2024-01-06T01:24:34;12.38;;;7.93;;
76403;SDS011;65232;48.358;2.122;2024-01-06T01:25:00;11.10;;;7.03;;
76403;SDS011;65232;48.358;2.122;2024-01-06T01:25:30;12.40;;;7.75;;
76403;SDS011;65232;48.358;2.122;2024-01-06T01:25:55;9.80;;;7.10;;
76403;SDS011;65232;48.358;2.122;2024-01-06T01:26:21;12.43;;;8.02;;
76403;SDS011;65232;48.358;2.122;2024-01-06T01:26:46;11.65;;;7.88;;
76403;SDS011;65232;48.358;2.122;2024-01-06T01:27:11;10.85;;;7.78;;
76403;SDS011;65232;48.358;2.122;2024-01-06T01:27:37;12.52;;;7.03;;
76403;SDS011;65232;48.358;2.122;2024-01-06T01:28:02;12.30;;;8.18;;
76403;SDS011;65232;48.358;2.122;2024-01-06T01:28:28;10.95;;;7.35;;
76403;SDS011;65232;48.358;2.122;2024-01-06T01:28:53;10.45;;;7.05;;
76403;SDS011;65232;48.358;2.122;2024-01-06T01:29:19;8.25;;;6.55;;
76403;SDS011;65232;48.358;2.122;2024-01-06T01:29:45;9.00;;;6.78;;
76403;SDS011;65232;48.358;2.122;2024-01-06T01:30:10;10.95;;;7.03;;
76403;SDS011;65232;48.358;2.122;2024-01-06T01:30:36;10.75;;;8.00;;
76403;SDS011;65232;48.358;2.122;2024-01-06T01:31:01;10.77;;;7.57;;
76403;SDS011;65232;48.358;2.122;2024-01-06T01:31:27;11.85;;;8.50;;
76403;SDS011;65232;48.358;2.122;2024-01-06T01:31:52;9.80;;;7.03;;
76403;SDS011;65232;48.358;2.122;2024-01-06T01:32:18;9.10;;;6.60;;
76403;SDS011;65232;48.358;2.122;2024-01-06T01:32:43;11.25;;;6.75;;
76403;SDS011;65232;48.358;2.122;2024-01-06T01:33:09;11.40;;;7.47;;
76403;SDS011;65232;48.358;2.122;2024-01-06T01:33:34;12.20;;;7.82;;
76403;SDS011;65232;48.358;2.122;2024-01-06T01:34:00;12.57;;;7.60;;
76403;SDS011;65232;48.358;2.122;2024-01-06T01:34:25;8.65;;;6.60;;
76403;SDS011;65232;48.358;2.122;2024-01-06T01:34:50;10.25;;;6.47;;
76403;SDS011;65232;48.358;2.122;2024-01-06T01:35:16;10.55;;;7.28;;
76403;SDS011;65232;48.358;2.122;2024-01-06T01:35:41;9.85;;;6.57;;
76403;SDS011;65232;48.358;2.122;2024-01-06T01:36:07;9.75;;;6.57;;
76403;SDS011;65232;48.358;2.122;2024-01-06T01:36:32;10.80;;;7.35;;
76403;SDS011;65232;48.358;2.122;2024-01-06T01:36:57;7.78;;;6.05;;
76403;SDS011;65232;48.358;2.122;2024-01-06T01:37:24;9.75;;;7.10;;
76403;SDS011;65232;48.358;2.122;2024-01-06T01:37:49;11.00;;;7.18;;
76403;SDS011;65232;48.358;2.122;2024-01-06T01:38:15;9.43;;;7.15;;
76403;SDS011;65232;48.358;2.122;2024-01-06T01:38:40;9.15;;;6.95;;
76403;SDS011;65232;48.358;2.122;2024-01-06T01:39:05;10.85;;;7.30;;
76403;SDS011;65232;48.358;2.122;2024-01-06T01:39:31;11.23;;;7.32;;
76403;SDS011;65232;48.358;2.122;2024-01-06T01:39:56;10.93;;;7.05;;
76403;SDS011;65232;48.358;2.122;2024-01-06T01:40:21;11.95;;;7.75;;
76403;SDS011;65232;48.358;2.122;2024-01-06T01:40:47;11.20;;;8.18;;
76403;SDS011;65232;48.358;2.122;2024-01-06T01:41:12;10.45;;;7.82;;
76403;SDS011;65232;48.358;2.122;2024-01-06T01:41:37;10.90;;;7.38;;
76403;SDS011;65232;48.358;2.122;2024-01-06T01:42:03;11.35;;;7.53;;
76403;SDS011;65232;48.358;2.122;2024-01-06T01:42:28;10.27;;;7.28;;
76403;SDS011;65232;48.358;2.122;2024-01-06T01:42:54;10.25;;;6.75;;
76403;SDS011;65232;48.358;2.122;2024-01-06T01:43:19;9.13;;;6.18;;
76403;SDS011;65232;48.358;2.122;2024-01-06T01:43:45;8.45;;;6.32;;
76403;SDS011;65232;48.358;2.122;2024-01-06T01:44:11;8.68;;;6.30;;
76403;SDS011;65232;48.358;2.122;2024-01-06T01:44:37;8.63;;;5.97;;
76403;SDS011;65232;48.358;2.122;2024-01-06T01:45:03;8.02;;;6.30;;
76403;SDS011;65232;48.358;2.122;2024-01-06T01:45:29;8.05;;;5.28;;
76403;SDS011;65232;48.358;2.122;2024-01-06T01:45:54;7.72;;;5.50;;
76403;SDS011;65232;48.358;2.122;2024-01-06T01:46:20;9.60;;;6.15;;
76403;SDS011;65232;48.358;2.122;2024-01-06T01:46:46;8.80;;;5.88;;
76403;SDS011;65232;48.358;2.122;2024-01-06T01:47:11;8.82;;;5.38;;
76403;SDS011;65232;48.358;2.122;2024-01-06T01:47:37;8.20;;;6.10;;
76403;SDS011;65232;48.358;2.122;2024-01-06T01:48:02;8.48;;;5.30;;
76403;SDS011;65232;48.358;2.122;2024-01-06T01:48:28;8.20;;;5.35;;
76403;SDS011;65232;48.358;2.122;2024-01-06T01:48:54;7.97;;;5.28;;
76403;SDS011;65232;48.358;2.122;2024-01-06T01:49:20;7.80;;;5.55;;
76403;SDS011;65232;48.358;2.122;2024-01-06T01:49:45;7.55;;;5.15;;
76403;SDS011;65232;48.358;2.122;2024-01-06T01:50:12;7.38;;;5.75;;
76403;SDS011;65232;48.358;2.122;2024-01-06T01:50:38;7.88;;;5.43;;
76403;SDS011;65232;48.358;2.122;2024-01-06T01:51:03;10.18;;;5.45;;
76403;SDS011;65232;48.358;2.122;2024-01-06T01:51:29;7.10;;;5.28;;
76403;SDS011;65232;48.358;2.122;2024-01-06T01:51:56;5.80;;;4.97;;
76403;SDS011;65232;48.358;2.122;2024-01-06T01:52:22;7.97;;;5.10;;
76403;SDS011;65232;48.358;2.122;2024-01-06T01:52:47;8.40;;;5.32;;
76403;SDS011;65232;48.358;2.122;2024-01-06T01:53:13;7.30;;;5.38;;
76403;SDS011;65232;48.358;2.122;2024-01-06T01:53:39;7.40;;;5.05;;
76403;SDS011;65232;48.358;2.122;2024-01-06T01:54:05;6.32;;;4.70;;
76403;SDS011;65232;48.358;2.122;2024-01-06T01:54:31;7.57;;;5.85;;
76403;SDS011;65232;48.358;2.122;2024-01-06T01:54:57;6.93;;;4.97;;
76403;SDS011;65232;48.358;2.122;2024-01-06T01:55:22;5.68;;;4.55;;
76403;SDS011;65232;48.358;2.122;2024-01-06T01:55:48;7.90;;;4.60;;
76403;SDS011;65232;48.358;2.122;2024-01-06T01:56:14;7.63;;;4.93;;
76403;SDS011;65232;48.358;2.122;2024-01-06T01:57:06;6.50;;;4.40;;
76403;SDS011;65232;48.358;2.122;2024-01-06T01:57:32;6.38;;;5.03;;
76403;SDS011;65232;48.358;2.122;2024-01-06T01:57:58;6.55;;;4.25;;
76403;SDS011;65232;48.358;2.122;2024-01-06T01:58:23;7.40;;;4.60;;
76403;SDS011;65232;48.358;2.122;2024-01-06T01:58:49;7.22;;;4.43;;
76403;SDS011;65232;48.358;2.122;2024-01-06T01:59:14;7.80;;;4.90;;
76403;SDS011;65232;48.358;2.122;2024-01-06T01:59:43;8.27;;;5.47;;
76403;SDS011;65232;48.358;2.122;2024-01-06T02:00:08;10.30;;;6.75;;
76403;SDS011;65232;48.358;2.122;2024-01-06T02:00:37;11.52;;;8.65;;
76403;SDS011;65232;48.358;2.122;2024-01-06T02:01:03;13.45;;;8.25;;
76403;SDS011;65232;48.358;2.122;2024-01-06T02:01:29;11.10;;;7.95;;
76403;SDS011;65232;48.358;2.122;2024-01-06T02:01:54;8.70;;;5.90;;
76403;SDS011;65232;48.358;2.122;2024-01-06T02:02:20;12.65;;;6.90;;
76403;SDS011;65232;48.358;2.122;2024-01-06T02:02:47;9.82;;;5.57;;
76403;SDS011;65232;48.358;2.122;2024-01-06T02:03:12;10.02;;;6.25;;
76403;SDS011;65232;48.358;2.122;2024-01-06T02:03:38;12.05;;;7.40;;
76403;SDS011;65232;48.358;2.122;2024-01-06T02:04:06;11.65;;;7.22;;
76403;SDS011;65232;48.358;2.122;2024-01-06T02:04:32;12.50;;;7.93;;
76403;SDS011;65232;48.358;2.122;2024-01-06T02:04:58;10.85;;;7.22;;
76403;SDS011;65232;48.358;2.122;2024-01-06T02:05:23;8.85;;;6.82;;
76403;SDS011;65232;48.358;2.122;2024-01-06T02:05:49;7.75;;;5.25;;
76403;SDS011;65232;48.358;2.122;2024-01-06T02:06:14;7.43;;;4.93;;
76403;SDS011;65232;48.358;2.122;2024-01-06T02:06:40;7.68;;;5.03;;
76403;SDS011;65232;48.358;2.122;2024-01-06T02:07:05;6.82;;;5.30;;
76403;SDS011;65232;48.358;2.122;2024-01-06T02:07:30;7.90;;;6.22;;
76403;SDS011;65232;48.358;2.122;2024-01-06T02:07:56;10.32;;;6.25;;
76403;SDS011;65232;48.358;2.122;2024-01-06T02:08:21;10.73;;;6.95;;
76403;SDS011;65232;48.358;2.122;2024-01-06T02:08:48;9.90;;;7.32;;
76403;SDS011;65232;48.358;2.122;2024-01-06T02:09:14;9.48;;;6.35;;
76403;SDS011;65232;48.358;2.122;2024-01-06T02:09:39;8.15;;;5.47;;
76403;SDS011;65232;48.358;2.122;2024-01-06T02:10:05;8.70;;;6.15;;
76403;SDS011;65232;48.358;2.122;2024-01-06T02:10:31;5.88;;;4.43;;
76403;SDS011;65232;48.358;2.122;2024-01-06T02:10:56;5.90;;;4.55;;
76403;SDS011;65232;48.358;2.122;2024-01-06T02:11:22;5.93;;;4.28;;
76403;SDS011;65232;48.358;2.122;2024-01-06T02:11:47;6.35;;;3.88;;
76403;SDS011;65232;48.358;2.122;2024-01-06T02:12:13;6.13;;;4.25;;
76403;SDS011;65232;48.358;2.122;2024-01-06T02:12:38;5.50;;;4.30;;
76403;SDS011;65232;48.358;2.122;2024-01-06T02:13:10;6.43;;;3.97;;
76403;SDS011;65232;48.358;2.122;2024-01-06T02:13:37;6.38;;;4.43;;
76403;SDS011;65232;48.358;2.122;2024-01-06T02:14:28;6.22;;;4.15;;
76403;SDS011;65232;48.358;2.122;2024-01-06T02:14:53;5.50;;;4.25;;
76403;SDS011;65232;48.358;2.122;2024-01-06T02:15:19;5.32;;;4.07;;
76403;SDS011;65232;48.358;2.122;2024-01-06T02:15:44;5.25;;;3.88;;
76403;SDS011;65232;48.358;2.122;2024-01-06T02:16:09;4.22;;;3.83;;
76403;SDS011;65232;48.358;2.122;2024-01-06T02:16:35;6.80;;;4.90;;
76403;SDS011;65232;48.358;2.122;2024-01-06T02:17:00;6.03;;;3.78;;
76403;SDS011;65232;48.358;2.122;2024-01-06T02:17:25;5.55;;;3.78;;
76403;SDS011;65232;48.358;2.122;2024-01-06T02:17:51;5.22;;;3.85;;
76403;SDS011;65232;48.358;2.122;2024-01-06T02:18:16;5.72;;;4.07;;
76403;SDS011;65232;48.358;2.122;2024-01-06T02:18:41;5.32;;;3.83;;
76403;SDS011;65232;48.358;2.122;2024-01-06T02:19:07;8.27;;;4.47;;
76403;SDS011;65232;48.358;2.122;2024-01-06T02:19:36;5.40;;;4.20;;
76403;SDS011;65232;48.358;2.122;2024-01-06T02:20:01;6.45;;;4.43;;
76403;SDS011;65232;48.358;2.122;2024-01-06T02:20:27;7.68;;;5.72;;
76403;SDS011;65232;48.358;2.122;2024-01-06T02:20:56;7.63;;;5.10;;
76403;SDS011;65232;48.358;2.122;2024-01-06T02:21:23;9.65;;;5.50;;
76403;SDS011;65232;48.358;2.122;2024-01-06T02:21:51;6.65;;;4.60;;
76403;SDS011;65232;48.358;2.122;2024-01-06T02:22:18;7.07;;;5.05;;
76403;SDS011;65232;48.358;2.122;2024-01-06T02:22:43;6.22;;;4.80;;
76403;SDS011;65232;48.358;2.122;2024-01-06T02:23:08;6.40;;;4.90;;
76403;SDS011;65232;48.358;2.122;2024-01-06T02:23:34;7.57;;;5.25;;
76403;SDS011;65232;48.358;2.122;2024-01-06T02:24:01;6.90;;;5.20;;
76403;SDS011;65232;48.358;2.122;2024-01-06T02:24:26;7.45;;;5.20;;
76403;SDS011;65232;48.358;2.122;2024-01-06T02:24:52;6.60;;;5.13;;
76403;SDS011;65232;48.358;2.122;2024-01-06T02:25:18;6.80;;;5.03;;
76403;SDS011;65232;48.358;2.122;2024-01-06T02:25:44;6.35;;;4.82;;
76403;SDS011;65232;48.358;2.122;2024-01-06T02:26:10;7.30;;;4.95;;
76403;SDS011;65232;48.358;2.122;2024-01-06T02:26:36;5.82;;;4.68;;
76403;SDS011;65232;48.358;2.122;2024-01-06T02:27:01;9.43;;;4.60;;
76403;SDS011;65232;48.358;2.122;2024-01-06T02:27:26;6.68;;;4.97;;
76403;SDS011;65232;48.358;2.122;2024-01-06T02:27:52;8.25;;;5.05;;
76403;SDS011;65232;48.358;2.122;2024-01-06T02:28:17;6.43;;;5.07;;
76403;SDS011;65232;48.358;2.122;2024-01-06T02:28:43;6.60;;;4.10;;
76403;SDS011;65232;48.358;2.122;2024-01-06T02:29:12;6.85;;;4.68;;
76403;SDS011;65232;48.358;2.122;2024-01-06T02:29:38;7.07;;;4.65;;
76403;SDS011;65232;48.358;2.122;2024-01-06T02:30:03;10.20;;;4.97;;
76403;SDS011;65232;48.358;2.122;2024-01-06T02:30:29;5.60;;;4.45;;
76403;SDS011;65232;48.358;2.122;2024-01-06T02:30:54;7.15;;;5.35;;
76403;SDS011;65232;48.358;2.122;2024-01-06T02:31:20;6.07;;;4.35;;
76403;SDS011;65232;48.358;2.122;2024-01-06T02:31:45;6.63;;;3.97;;
76403;SDS011;65232;48.358;2.122;2024-01-06T02:32:11;5.55;;;4.15;;
76403;SDS011;65232;48.358;2.122;2024-01-06T02:32:36;4.60;;;3.80;;
76403;SDS011;65232;48.358;2.122;2024-01-06T02:33:01;5.30;;;4.15;;
76403;SDS011;65232;48.358;2.122;2024-01-06T02:33:27;5.90;;;4.25;;